createdAt,value
2022-09-23T00:01:25.858Z,7.70
2022-09-23T00:03:56.282Z,7.80
2022-09-23T00:06:25.189Z,7.70
2022-09-23T00:08:53.722Z,7.70
2022-09-23T00:11:23.417Z,7.70
2022-09-23T00:13:54.228Z,7.70
2022-09-23T00:16:23.602Z,7.60
2022-09-23T00:18:51.516Z,7.60
2022-09-23T00:21:22.542Z,7.70
2022-09-23T00:23:50.549Z,7.60
2022-09-23T00:26:20.603Z,7.50
2022-09-23T00:28:48.941Z,7.50
2022-09-23T00:31:19.986Z,7.50
2022-09-23T00:33:48.014Z,7.50
2022-09-23T00:36:16.933Z,7.50
2022-09-23T00:38:46.278Z,7.50
2022-09-23T00:41:15.935Z,7.50
2022-09-23T00:43:46.085Z,7.40
2022-09-23T00:46:18.565Z,7.40
2022-09-23T00:48:48.795Z,7.30
2022-09-23T00:51:20.612Z,7.30
2022-09-23T00:53:52.105Z,7.30
2022-09-23T00:56:22.241Z,7.30
2022-09-23T00:58:51.583Z,7.30
2022-09-23T01:01:20.857Z,7.30
2022-09-23T01:03:50.026Z,7.20
2022-09-23T01:06:18.216Z,7.20
2022-09-23T01:08:47.777Z,7.20
2022-09-23T01:11:31.269Z,7.20
2022-09-23T01:14:10.710Z,7.10
2022-09-23T01:16:45.366Z,7.10
2022-09-23T01:19:32.451Z,7.10
2022-09-23T01:22:09.897Z,7.10
2022-09-23T01:24:54.274Z,7.10
2022-09-23T01:27:38.101Z,7.10
2022-09-23T01:30:18.629Z,7.00
2022-09-23T01:33:06.170Z,7.00
2022-09-23T01:35:47.868Z,7.00
2022-09-23T01:38:27.737Z,6.90
2022-09-23T01:41:04.513Z,6.90
2022-09-23T01:43:41.630Z,6.90
2022-09-23T01:46:14.120Z,6.90
2022-09-23T01:48:50.824Z,6.90
2022-09-23T01:51:25.337Z,6.90
2022-09-23T01:53:58.849Z,6.90
2022-09-23T01:56:30.340Z,6.90
2022-09-23T01:59:03.332Z,6.80
2022-09-23T02:01:36.305Z,6.80
2022-09-23T02:04:09.731Z,6.80
2022-09-23T02:06:42.469Z,6.80
2022-09-23T02:09:15.599Z,6.80
2022-09-23T02:11:46.099Z,6.70
2022-09-23T02:14:20.301Z,6.70
2022-09-23T02:16:50.874Z,6.60
2022-09-23T02:19:26.988Z,6.60
2022-09-23T02:22:01.342Z,6.60
2022-09-23T02:24:32.652Z,6.60
2022-09-23T02:27:07.658Z,6.60
2022-09-23T02:29:42.218Z,6.60
2022-09-23T02:32:17.800Z,6.50
2022-09-23T02:34:53.749Z,6.50
2022-09-23T02:37:28.633Z,6.50
2022-09-23T02:40:03.165Z,6.50
2022-09-23T02:42:39.342Z,6.50
2022-09-23T02:45:07.692Z,6.40
2022-09-23T02:47:39.571Z,6.40
2022-09-23T02:50:10.125Z,6.40
2022-09-23T02:52:38.680Z,6.40
2022-09-23T02:55:07.248Z,6.40
2022-09-23T02:57:35.566Z,6.40
2022-09-23T03:00:03.605Z,6.30
2022-09-23T03:02:52.722Z,6.30
2022-09-23T03:05:30.207Z,6.30
2022-09-23T03:08:12.798Z,6.30
2022-09-23T03:10:49.785Z,6.30
2022-09-23T03:13:29.402Z,6.20
2022-09-23T03:16:06.046Z,6.20
2022-09-23T03:18:40.266Z,6.20
2022-09-23T03:21:15.825Z,6.20
2022-09-23T03:23:45.768Z,6.10
2022-09-23T03:26:17.273Z,6.10
2022-09-23T03:28:46.684Z,6.10
2022-09-23T03:31:16.200Z,6.20
2022-09-23T03:33:47.869Z,6.20
2022-09-23T03:36:40.110Z,6.10
2022-09-23T03:39:12.589Z,6.10
2022-09-23T03:41:48.318Z,6.20
2022-09-23T03:44:17.382Z,6.10
2022-09-23T03:46:49.610Z,6.00
2022-09-23T03:49:19.841Z,6.00
2022-09-23T03:51:48.889Z,6.00
2022-09-23T03:54:19.621Z,6.00
2022-09-23T03:56:48.234Z,6.00
2022-09-23T03:59:16.094Z,6.00
2022-09-23T04:01:44.224Z,5.90
2022-09-23T04:04:11.996Z,5.90
2022-09-23T04:06:39.751Z,5.80
2022-09-23T04:09:09.257Z,5.80
2022-09-23T04:11:37.263Z,5.80
2022-09-23T04:14:05.493Z,5.80
2022-09-23T04:16:33.426Z,5.80
2022-09-23T04:19:01.217Z,5.80
2022-09-23T04:21:31.501Z,5.80
2022-09-23T04:23:59.236Z,5.80
2022-09-23T04:26:28.426Z,5.70
2022-09-23T04:28:56.705Z,5.70
2022-09-23T04:31:24.979Z,5.70
2022-09-23T04:33:53.989Z,5.70
2022-09-23T04:36:21.788Z,5.70
2022-09-23T04:38:50.942Z,5.70
2022-09-23T04:41:19.733Z,5.70
2022-09-23T04:43:48.952Z,5.60
2022-09-23T04:46:17.943Z,5.60
2022-09-23T04:48:46.114Z,5.60
2022-09-23T04:51:16.020Z,5.60
2022-09-23T04:53:45.290Z,5.60
2022-09-23T04:56:15.061Z,5.60
2022-09-23T04:58:43.798Z,5.70
2022-09-23T05:01:15.119Z,5.60
2022-09-23T05:03:44.055Z,5.50
2022-09-23T05:06:13.686Z,5.60
2022-09-23T05:08:42.251Z,5.50
2022-09-23T05:11:09.993Z,5.50
2022-09-23T05:13:37.792Z,5.50
2022-09-23T05:16:07.907Z,5.50
2022-09-23T05:18:42.596Z,5.50
2022-09-23T05:21:11.058Z,5.40
2022-09-23T05:23:39.710Z,5.50
2022-09-23T05:26:10.380Z,5.40
2022-09-23T05:28:39.306Z,5.40
2022-09-23T05:31:15.820Z,5.40
2022-09-23T05:33:51.601Z,5.40
2022-09-23T05:36:20.528Z,5.40
2022-09-23T05:38:49.110Z,5.50
2022-09-23T05:41:17.160Z,5.50
2022-09-23T05:43:45.022Z,5.60
2022-09-23T05:46:14.793Z,5.60
2022-09-23T05:48:43.933Z,5.50
2022-09-23T05:51:16.164Z,5.40
2022-09-23T05:53:45.272Z,5.40
2022-09-23T05:56:13.545Z,5.40
2022-09-23T05:58:41.446Z,5.40
2022-09-23T06:01:12.969Z,5.30
2022-09-23T06:03:41.378Z,5.30
2022-09-23T06:06:15.295Z,5.40
2022-09-23T06:08:43.503Z,5.40
2022-09-23T06:11:12.319Z,5.30
2022-09-23T06:13:40.949Z,5.30
2022-09-23T06:16:10.593Z,5.30
2022-09-23T06:18:40.324Z,5.40
2022-09-23T06:21:08.239Z,5.40
2022-09-23T06:23:40.540Z,5.50
2022-09-23T06:26:11.022Z,5.50
2022-09-23T06:28:40.365Z,5.60
2022-09-23T06:31:13.842Z,5.80
2022-09-23T06:33:43.086Z,5.90
2022-09-23T06:36:11.644Z,6.20
2022-09-23T06:38:41.713Z,6.50
2022-09-23T06:41:09.561Z,6.70
2022-09-23T06:43:37.354Z,6.40
2022-09-23T06:46:07.247Z,6.20
2022-09-23T06:48:36.093Z,6.10
2022-09-23T06:51:07.225Z,5.90
2022-09-23T06:53:35.660Z,5.80
2022-09-23T06:56:07.246Z,5.80
2022-09-23T06:58:37.944Z,5.60
2022-09-23T07:01:10.575Z,5.70
2022-09-23T07:03:39.329Z,5.80
2022-09-23T07:06:08.120Z,5.80
2022-09-23T07:08:37.328Z,5.80
2022-09-23T07:11:13.471Z,6.10
2022-09-23T07:13:42.569Z,6.10
2022-09-23T07:16:11.536Z,6.10
2022-09-23T07:18:40.660Z,6.20
2022-09-23T07:21:10.216Z,6.30
2022-09-23T07:23:38.841Z,6.20
2022-09-23T07:26:08.775Z,6.40
2022-09-23T07:28:37.230Z,6.50
2022-09-23T07:31:10.032Z,6.60
2022-09-23T07:33:39.695Z,6.60
2022-09-23T07:36:10.037Z,6.60
2022-09-23T07:38:42.833Z,6.70
2022-09-23T07:41:17.092Z,6.80
2022-09-23T07:43:45.430Z,6.90
2022-09-23T07:46:17.333Z,7.20
2022-09-23T07:48:46.203Z,7.30
2022-09-23T07:51:17.368Z,7.30
2022-09-23T07:53:48.056Z,7.20
2022-09-23T07:56:18.998Z,7.30
2022-09-23T07:58:59.697Z,7.50
2022-09-23T08:01:29.599Z,7.50
2022-09-23T08:03:58.046Z,7.50
2022-09-23T08:06:25.899Z,7.70
2022-09-23T08:08:53.960Z,7.60
2022-09-23T08:11:23.668Z,7.80
2022-09-23T08:13:51.679Z,8.10
2022-09-23T08:16:19.575Z,8.00
2022-09-23T08:18:47.668Z,8.10
2022-09-23T08:21:20.274Z,8.10
2022-09-23T08:23:48.100Z,7.90
2022-09-23T08:26:21.258Z,8.20
2022-09-23T08:28:54.394Z,8.30
2022-09-23T08:31:22.954Z,7.90
2022-09-23T08:33:56.380Z,8.00
2022-09-23T08:36:24.643Z,8.40
2022-09-23T08:38:52.952Z,8.80
2022-09-23T08:41:26.932Z,8.70
2022-09-23T08:43:59.946Z,8.90
2022-09-23T08:46:33.066Z,8.80
2022-09-23T08:49:02.214Z,9.10
2022-09-23T08:51:36.452Z,9.90
2022-09-23T08:54:04.467Z,9.90
2022-09-23T08:56:35.464Z,9.50
2022-09-23T08:59:10.420Z,9.20
2022-09-23T09:01:43.806Z,8.50
2022-09-23T09:04:18.088Z,9.20
2022-09-23T09:06:54.073Z,9.00
2022-09-23T09:09:26.829Z,8.80
2022-09-23T09:12:03.293Z,9.10
2022-09-23T09:14:38.822Z,9.40
2022-09-23T09:17:10.445Z,9.80
2022-09-23T09:19:55.210Z,10.20
2022-09-23T09:22:38.271Z,10.00
2022-09-23T09:25:18.437Z,9.90
2022-09-23T09:27:48.321Z,9.90
2022-09-23T09:30:18.499Z,10.00
2022-09-23T09:32:49.724Z,10.00
2022-09-23T09:35:28.054Z,9.50
2022-09-23T09:37:56.049Z,9.80
2022-09-23T09:40:23.931Z,9.90
2022-09-23T09:42:51.906Z,9.80
2022-09-23T09:45:29.998Z,10.50
2022-09-23T09:48:07.226Z,10.90
2022-09-23T09:50:49.013Z,10.70
2022-09-23T09:53:25.732Z,10.60
2022-09-23T09:56:05.313Z,10.70
2022-09-23T09:58:45.926Z,12.00
2022-09-23T10:01:23.263Z,11.80
2022-09-23T10:03:55.556Z,13.40
2022-09-23T10:06:27.445Z,11.20
2022-09-23T10:09:16.948Z,11.90
2022-09-23T10:12:03.866Z,12.80
2022-09-23T10:14:31.632Z,13.70
2022-09-23T10:17:06.269Z,14.10
2022-09-23T10:19:37.051Z,13.70
2022-09-23T10:22:10.676Z,13.20
2022-09-23T10:24:38.810Z,13.90
2022-09-23T10:27:09.460Z,14.00
2022-09-23T10:29:40.077Z,13.80
2022-09-23T10:32:26.892Z,13.00
2022-09-23T10:34:58.339Z,11.70
2022-09-23T10:37:32.781Z,11.50
2022-09-23T10:40:19.538Z,11.70
2022-09-23T10:43:25.055Z,12.40
2022-09-23T10:46:16.239Z,13.20
2022-09-23T10:49:01.816Z,12.50
2022-09-23T10:51:35.745Z,12.70
2022-09-23T10:54:14.085Z,13.40
2022-09-23T10:56:45.735Z,13.20
2022-09-23T10:59:45.106Z,12.80
2022-09-23T11:02:29.997Z,12.90
2022-09-23T11:05:25.639Z,13.20
2022-09-23T11:08:04.027Z,13.20
2022-09-23T11:10:57.766Z,13.00
2022-09-23T11:13:43.694Z,13.30
2022-09-23T11:16:25.642Z,13.40
2022-09-23T11:19:11.186Z,13.60
2022-09-23T11:22:05.394Z,14.00
2022-09-23T11:25:06.719Z,14.10
2022-09-23T11:27:46.777Z,13.90
2022-09-23T11:30:17.239Z,14.10
2022-09-23T11:33:20.914Z,13.90
2022-09-23T11:35:53.303Z,14.00
2022-09-23T11:38:26.228Z,13.90
2022-09-23T11:40:57.409Z,14.10
2022-09-23T11:43:28.517Z,14.30
2022-09-23T11:46:01.245Z,14.10
2022-09-23T11:48:36.939Z,14.10
2022-09-23T11:51:12.040Z,14.10
2022-09-23T11:53:46.464Z,14.30
2022-09-23T11:56:32.947Z,14.60
2022-09-23T11:59:07.979Z,14.80
2022-09-23T12:01:43.173Z,14.80
2022-09-23T12:04:22.072Z,14.80
2022-09-23T12:06:53.965Z,14.40
2022-09-23T12:09:47.249Z,14.80
2022-09-23T12:12:19.006Z,14.60
2022-09-23T12:14:56.519Z,14.50
2022-09-23T12:18:04.237Z,14.90
2022-09-23T12:20:49.486Z,14.90
2022-09-23T12:23:29.874Z,15.10
2022-09-23T12:26:02.979Z,14.60
2022-09-23T12:28:35.989Z,15.10
2022-09-23T12:31:06.846Z,15.30
2022-09-23T12:33:36.731Z,15.50
2022-09-23T12:36:06.773Z,15.60
2022-09-23T12:38:37.042Z,15.60
2022-09-23T12:41:21.866Z,15.30
2022-09-23T12:43:54.781Z,15.00
2022-09-23T12:46:25.969Z,15.30
2022-09-23T12:49:03.085Z,15.50
2022-09-23T12:51:31.764Z,15.70
2022-09-23T12:54:25.231Z,15.20
2022-09-23T12:57:40.495Z,15.30
2022-09-23T13:00:25.906Z,15.70
2022-09-23T13:03:15.842Z,15.70
2022-09-23T13:06:04.945Z,15.70
2022-09-23T13:08:36.593Z,16.00
2022-09-23T13:11:08.451Z,15.80
2022-09-23T13:13:40.987Z,15.80
2022-09-23T13:16:14.577Z,15.80
2022-09-23T13:18:54.113Z,16.00
2022-09-23T13:21:55.011Z,15.70
2022-09-23T13:24:39.626Z,15.90
2022-09-23T13:27:16.621Z,16.10
2022-09-23T13:29:51.085Z,16.10
2022-09-23T13:32:21.779Z,15.80
2022-09-23T13:34:57.869Z,16.00
2022-09-23T13:37:31.205Z,16.00
2022-09-23T13:40:09.772Z,15.90
2022-09-23T13:42:41.797Z,16.20
2022-09-23T13:45:17.773Z,16.20
2022-09-23T13:47:47.686Z,15.90
2022-09-23T13:50:19.855Z,15.90
2022-09-23T13:52:52.261Z,16.10
2022-09-23T13:55:37.138Z,16.20
2022-09-23T13:58:13.749Z,16.10
2022-09-23T14:00:42.905Z,16.40
2022-09-23T14:03:25.351Z,16.30
2022-09-23T14:05:54.794Z,16.40
2022-09-23T14:08:23.103Z,16.30
2022-09-23T14:10:51.066Z,16.20
2022-09-23T14:13:25.892Z,16.10
2022-09-23T14:15:58.198Z,16.00
2022-09-23T14:18:34.196Z,16.20
2022-09-23T14:21:02.041Z,16.20
2022-09-23T14:23:29.764Z,16.10
2022-09-23T14:25:58.860Z,16.20
2022-09-23T14:28:28.553Z,16.30
2022-09-23T14:30:58.789Z,16.20
2022-09-23T14:33:29.338Z,16.40
2022-09-23T14:36:03.826Z,16.20
2022-09-23T14:38:49.517Z,16.30
2022-09-23T14:41:21.861Z,16.20
2022-09-23T14:43:52.600Z,16.20
2022-09-23T14:46:23.701Z,16.30
2022-09-23T14:48:57.790Z,16.30
2022-09-23T14:51:32.669Z,16.30
2022-09-23T14:54:32.914Z,16.20
2022-09-23T14:57:01.900Z,16.20
2022-09-23T14:59:33.969Z,16.30
2022-09-23T15:02:03.538Z,16.10
2022-09-23T15:04:35.366Z,16.00
2022-09-23T15:07:08.169Z,15.90
2022-09-23T15:09:39.649Z,16.00
2022-09-23T15:12:12.822Z,16.00
2022-09-23T15:14:46.353Z,16.00
2022-09-23T15:17:32.412Z,16.10
2022-09-23T15:20:02.621Z,16.10
2022-09-23T15:22:30.449Z,16.00
2022-09-23T15:25:15.519Z,15.80
2022-09-23T15:27:43.531Z,15.80
2022-09-23T15:30:17.038Z,15.80
2022-09-23T15:32:47.061Z,15.80
2022-09-23T15:35:16.259Z,15.80
2022-09-23T15:37:44.253Z,15.80
2022-09-23T15:40:20.585Z,15.90
2022-09-23T15:42:52.308Z,15.80
2022-09-23T15:45:21.999Z,15.90
2022-09-23T15:47:52.083Z,15.90
2022-09-23T15:50:20.367Z,15.80
2022-09-23T15:52:48.279Z,15.80
2022-09-23T15:55:18.231Z,15.80
2022-09-23T15:57:46.359Z,15.50
2022-09-23T16:00:16.275Z,15.50
2022-09-23T16:02:46.661Z,15.40
2022-09-23T16:05:22.667Z,15.20
2022-09-23T16:07:52.342Z,15.20
2022-09-23T16:10:22.706Z,15.00
2022-09-23T16:12:52.220Z,14.90
2022-09-23T16:15:22.311Z,14.90
2022-09-23T16:17:50.489Z,14.70
2022-09-23T16:20:20.277Z,14.70
2022-09-23T16:22:53.944Z,14.70
2022-09-23T16:25:22.571Z,14.60
2022-09-23T16:27:50.378Z,14.60
2022-09-23T16:30:18.302Z,14.50
2022-09-23T16:32:46.152Z,14.40
2022-09-23T16:35:14.202Z,14.30
2022-09-23T16:37:47.117Z,14.30
2022-09-23T16:40:16.369Z,14.30
2022-09-23T16:42:46.383Z,14.20
2022-09-23T16:45:17.105Z,14.10
2022-09-23T16:47:46.104Z,14.10
2022-09-23T16:50:14.736Z,14.10
2022-09-23T16:52:44.931Z,13.90
2022-09-23T16:55:14.575Z,13.80
2022-09-23T16:57:42.693Z,13.80
2022-09-23T17:00:32.241Z,13.70
2022-09-23T17:03:17.794Z,13.70
2022-09-23T17:05:58.727Z,13.70
2022-09-23T17:08:35.819Z,13.70
2022-09-23T17:11:03.632Z,13.70
2022-09-23T17:13:32.454Z,13.70
2022-09-23T17:16:00.779Z,13.60
2022-09-23T17:18:29.672Z,13.60
2022-09-23T17:20:59.142Z,13.60
2022-09-23T17:23:28.243Z,13.60
2022-09-23T17:25:57.454Z,13.60
2022-09-23T17:28:25.616Z,13.70
2022-09-23T17:30:58.517Z,13.60
2022-09-23T17:33:26.902Z,13.60
2022-09-23T17:35:56.686Z,13.60
2022-09-23T17:38:28.937Z,13.60
2022-09-23T17:41:01.183Z,13.60
2022-09-23T17:43:30.078Z,13.50
2022-09-23T17:46:06.445Z,13.50
2022-09-23T17:48:36.218Z,13.40
2022-09-23T17:51:06.101Z,13.40
2022-09-23T17:53:35.895Z,13.40
2022-09-23T17:56:07.332Z,13.40
2022-09-23T17:58:36.782Z,13.40
2022-09-23T18:01:05.383Z,13.40
2022-09-23T18:03:33.277Z,13.30
2022-09-23T18:06:12.540Z,13.30
2022-09-23T18:08:41.627Z,13.20
2022-09-23T18:11:16.001Z,13.20
2022-09-23T18:13:47.434Z,13.10
2022-09-23T18:16:15.263Z,13.10
2022-09-23T18:18:43.049Z,13.10
2022-09-23T18:21:11.017Z,13.10
2022-09-23T18:23:39.050Z,13.00
2022-09-23T18:26:15.747Z,13.00
2022-09-23T18:28:43.690Z,12.90
2022-09-23T18:31:12.270Z,12.90
2022-09-23T18:33:40.512Z,12.90
2022-09-23T18:36:09.522Z,12.90
2022-09-23T18:38:37.392Z,12.80
2022-09-23T18:41:05.273Z,12.80
2022-09-23T18:43:41.298Z,12.80
2022-09-23T18:46:13.492Z,12.70
2022-09-23T18:48:59.254Z,12.70
2022-09-23T18:51:28.985Z,12.70
2022-09-23T18:54:00.412Z,12.70
2022-09-23T18:56:33.643Z,12.70
2022-09-23T18:59:02.842Z,12.60
2022-09-23T19:01:30.767Z,12.60
2022-09-23T19:04:00.957Z,12.50
2022-09-23T19:06:29.885Z,12.50
2022-09-23T19:08:57.626Z,12.50
2022-09-23T19:11:25.880Z,12.50
2022-09-23T19:13:55.601Z,12.40
2022-09-23T19:16:25.708Z,12.40
2022-09-23T19:18:54.276Z,12.40
2022-09-23T19:21:23.179Z,12.30
2022-09-23T19:23:53.536Z,12.30
2022-09-23T19:26:23.412Z,12.30
2022-09-23T19:28:52.553Z,12.30
2022-09-23T19:31:22.230Z,12.20
2022-09-23T19:33:56.875Z,12.20
2022-09-23T19:36:26.595Z,12.20
2022-09-23T19:38:55.630Z,12.20
2022-09-23T19:41:23.814Z,12.10
2022-09-23T19:43:54.001Z,12.10
2022-09-23T19:46:22.291Z,12.00
2022-09-23T19:48:50.674Z,12.00
2022-09-23T19:51:19.736Z,12.10
2022-09-23T19:53:47.654Z,12.10
2022-09-23T19:56:18.045Z,12.00
2022-09-23T19:58:48.138Z,12.00
2022-09-23T20:01:16.513Z,11.90
2022-09-23T20:03:45.017Z,11.90
2022-09-23T20:06:12.773Z,11.90
2022-09-23T20:08:41.921Z,11.80
2022-09-23T20:11:12.191Z,11.80
2022-09-23T20:13:40.931Z,11.80
2022-09-23T20:16:12.854Z,11.70
2022-09-23T20:18:42.120Z,11.80
2022-09-23T20:21:12.159Z,11.80
2022-09-23T20:23:41.777Z,11.70
2022-09-23T20:26:28.514Z,11.70
2022-09-23T20:28:56.616Z,11.70
2022-09-23T20:31:25.041Z,11.60
2022-09-23T20:33:54.790Z,11.60
2022-09-23T20:36:22.550Z,11.60
2022-09-23T20:38:55.477Z,11.60
2022-09-23T20:41:23.284Z,11.50
2022-09-23T20:43:53.869Z,11.50
2022-09-23T20:46:23.270Z,11.50
2022-09-23T20:48:51.397Z,11.50
2022-09-23T20:51:19.155Z,11.40
2022-09-23T20:53:51.723Z,11.50
2022-09-23T20:56:21.691Z,11.40
2022-09-23T20:58:50.673Z,11.40
2022-09-23T21:01:18.952Z,11.40
2022-09-23T21:03:49.123Z,11.40
2022-09-23T21:06:18.869Z,11.40
2022-09-23T21:08:47.226Z,11.40
2022-09-23T21:11:16.739Z,11.40
2022-09-23T21:13:49.102Z,11.40
2022-09-23T21:16:18.340Z,11.30
2022-09-23T21:18:47.936Z,11.30
2022-09-23T21:21:18.241Z,11.30
2022-09-23T21:23:47.133Z,11.20
2022-09-23T21:26:17.703Z,11.20
2022-09-23T21:28:48.290Z,11.20
2022-09-23T21:31:23.010Z,11.20
2022-09-23T21:33:54.302Z,11.20
2022-09-23T21:36:24.383Z,11.20
2022-09-23T21:38:52.599Z,11.20
2022-09-23T21:41:20.749Z,11.20
2022-09-23T21:43:50.082Z,11.10
2022-09-23T21:46:20.803Z,11.10
2022-09-23T21:48:53.021Z,11.10
2022-09-23T21:51:24.094Z,11.20
2022-09-23T21:53:52.544Z,11.10
2022-09-23T21:56:21.588Z,11.10
2022-09-23T21:58:52.078Z,11.10
2022-09-23T22:01:21.719Z,11.10
2022-09-23T22:03:51.625Z,11.00
2022-09-23T22:06:22.147Z,11.00
2022-09-23T22:08:51.841Z,11.00
2022-09-23T22:11:39.201Z,10.90
2022-09-23T22:14:11.082Z,10.90
2022-09-23T22:16:39.071Z,10.90
2022-09-23T22:19:08.138Z,10.90
2022-09-23T22:21:38.035Z,10.90
2022-09-23T22:24:08.278Z,10.90
2022-09-23T22:26:38.400Z,10.90
2022-09-23T22:29:26.398Z,10.90
2022-09-23T22:32:11.872Z,10.90
2022-09-23T22:34:50.602Z,10.90
2022-09-23T22:37:23.064Z,10.90
2022-09-23T22:39:50.819Z,10.90
2022-09-23T22:42:21.107Z,10.80
2022-09-23T22:44:50.441Z,10.80
2022-09-23T22:47:19.310Z,10.80
2022-09-23T22:49:47.144Z,10.90
2022-09-23T22:52:16.069Z,10.90
2022-09-23T22:54:43.942Z,10.80
2022-09-23T22:57:11.848Z,10.80
2022-09-23T23:02:23.609Z,10.70
2022-09-23T23:04:51.749Z,10.70
2022-09-23T23:07:21.517Z,10.70
2022-09-23T23:09:50.605Z,10.70
2022-09-23T23:12:19.898Z,10.70
2022-09-23T23:14:47.963Z,10.60
2022-09-23T23:17:15.736Z,10.60
2022-09-23T23:19:45.096Z,10.60
2022-09-23T23:22:12.927Z,10.60
2022-09-23T23:24:40.732Z,10.60
2022-09-23T23:27:08.533Z,10.60
2022-09-23T23:29:36.247Z,10.60
2022-09-23T23:32:04.999Z,10.60
2022-09-23T23:34:33.222Z,10.70
2022-09-23T23:37:02.370Z,10.70
2022-09-23T23:39:30.102Z,10.70
2022-09-23T23:41:58.959Z,10.60
2022-09-23T23:44:27.637Z,10.60
2022-09-23T23:46:55.899Z,10.60
2022-09-23T23:49:24.017Z,10.50
2022-09-23T23:51:52.067Z,10.50
2022-09-23T23:54:21.132Z,10.50
2022-09-23T23:56:48.870Z,10.50
2022-09-23T23:59:18.283Z,10.50
